Garden City, KS

01:22 AM CDT on gusht 24, 2016 (GMT -0500)
N0KQX | | Change Station

Elev 2839 ft 37.97 °N, 100.85 °W | Updated 10 seconds ago

Clear
i kthjellet
76.4 °F
Feels Like 78 °F
N
0.0
Era e paqendrueshme Era from JP
Gusts 0.0 mph

Sot
High -- | Low -- °F
--% Chance of Precip.
Yesterday
High -- | Low -- °F
Precip. -- ne
Presioni 29.82 ne
Visioni 10.0 milje
Clouds i kthjellet
Indeksi I Nxehtesise 78 °F
Pika E Veses 65 °F
Lageshtira E ajrit 68%
Rainfall 0.00 ne
Snow Depth Not available.
7:06 AM 8:23 PM
Waning Gibbous, 60% visible
METAR KGCK 240554Z AUTO 19013G20KT 10SM CLR 24/18 A2994 RMK AO2 SLP096 T02390178 10344 20239 403610194 51010
Presioni 29.82 ne
Visioni 10.0 milje
Clouds i kthjellet
Indeksi I Nxehtesise 78 °F
Pika E Veses 65 °F
Lageshtira E ajrit 68%
Rainfall 0.00 ne
Snow Depth Not available.
7:06 AM 8:23 PM
Waning Gibbous, 60% visible
METAR KGCK 240554Z AUTO 19013G20KT 10SM CLR 24/18 A2994 RMK AO2 SLP096 T02390178 10344 20239 403610194 51010

10-Day Weather Forecast

Almanac

Astronomy

Aug. 24, 2016 Rise Set
Actual Time
Civil Twilight
Nautical Twilight
Astronomical Twilight
Moon
Length Of Visible Light
Length of Day
Tomorrow will be .
, % of the Moon is Illuminated

Today's Extremes

State Highs State Lows

Community

WunderPhotos

Upload Photos

1,934,554 photos uploaded!

WunderBlog® & News

Nearby

Air Quality

  Air Quality AQ Index Pollutant
Not available.

Snow Depth

Station Depth Elevation

Earthquake Activity

City Distance Mag. Time & Date
Minimum magnitude displayed is 2.5.

Coastal Water Temperatures

Vend Temperatura

Stations

Nearby Weather Stations

Station Location Temp Ftohtesia E erses Pika E Veses Lageshtira E ajrit Era Precip. Elev te freskuara(Te Dhenat) Type
                   

Watches & Warnings

There are currently no watches in effect.